Terminal Aerodrome Forecast
Issued by NWS

Current Version | Previous Version | Text Only | Print | Product List | Glossary On
Versions: 1 2 3 4 5 6 7 8 9 10 11 12 13 14 15 16 17 18 19
000
FTAK31 PAFA 110538
TAFAGA
TAF
PAGA 110538Z 1106/1206 VRB04KT 6SM -SN BR BKN015 OVC025
     FM111500 VRB04KT 4SM -SN BR BKN015 OVC025
     FM111800 VRB04KT 2SM -SN BR OVC015
      AMD NOT SKED=

USA.gov is the U.S. government's official web portal to all federal, state and local government web resources and services.